createdAt,value
2018-10-16T00:00:55.186Z,10.00
2018-10-16T00:03:23.399Z,9.90
2018-10-16T00:05:51.618Z,9.70
2018-10-16T00:08:19.797Z,9.50
2018-10-16T00:10:47.969Z,9.40
2018-10-16T00:13:16.114Z,9.40
2018-10-16T00:15:44.306Z,9.40
2018-10-16T00:18:12.824Z,9.40
2018-10-16T00:20:41.419Z,9.40
2018-10-16T00:23:10.569Z,9.50
2018-10-16T00:25:38.820Z,9.50
2018-10-16T00:28:07.404Z,9.50
2018-10-16T00:30:35.630Z,9.60
2018-10-16T00:33:03.813Z,9.70
2018-10-16T00:35:31.987Z,9.60
2018-10-16T00:38:00.138Z,9.60
2018-10-16T00:40:28.293Z,9.60
2018-10-16T00:42:56.468Z,9.50
2018-10-16T00:45:24.634Z,9.50
2018-10-16T00:47:52.784Z,9.50
2018-10-16T00:50:20.916Z,9.40
2018-10-16T00:52:49.066Z,9.50
2018-10-16T00:55:17.228Z,9.50
2018-10-16T00:57:45.395Z,9.50
2018-10-16T01:00:13.950Z,9.30
2018-10-16T01:02:43.145Z,9.20
2018-10-16T01:05:12.452Z,9.10
2018-10-16T01:07:41.225Z,9.10
2018-10-16T01:10:10.545Z,9.00
2018-10-16T01:12:39.363Z,8.90
2018-10-16T01:15:08.714Z,8.90
2018-10-16T01:17:38.753Z,8.90
2018-10-16T01:20:09.973Z,8.80
2018-10-16T01:22:38.202Z,8.70
2018-10-16T01:25:07.450Z,8.70
2018-10-16T01:27:35.640Z,8.60
2018-10-16T01:30:03.889Z,8.50
2018-10-16T01:32:32.094Z,8.50
2018-10-16T01:35:00.302Z,8.50
2018-10-16T01:37:28.439Z,8.50
2018-10-16T01:39:56.609Z,8.50
2018-10-16T01:42:24.801Z,8.40
2018-10-16T01:44:52.991Z,8.40
2018-10-16T01:47:21.639Z,8.30
2018-10-16T01:49:49.855Z,8.40
2018-10-16T01:52:17.990Z,8.40
2018-10-16T01:54:46.123Z,8.40
2018-10-16T01:57:14.250Z,8.40
2018-10-16T01:59:43.039Z,8.40
2018-10-16T02:02:11.178Z,8.50
2018-10-16T02:04:39.315Z,8.50
2018-10-16T02:07:07.462Z,8.60
2018-10-16T02:09:35.587Z,8.70
2018-10-16T02:12:03.732Z,8.70
2018-10-16T02:14:31.911Z,8.70
2018-10-16T02:17:00.034Z,8.70
2018-10-16T02:19:28.160Z,8.70
2018-10-16T02:21:56.367Z,8.60
2018-10-16T02:24:24.494Z,8.60
2018-10-16T02:26:52.621Z,8.50
2018-10-16T02:29:20.745Z,8.50
2018-10-16T02:31:48.873Z,8.50
2018-10-16T02:34:17.003Z,8.40
2018-10-16T02:36:45.127Z,8.40
2018-10-16T02:39:13.280Z,8.40
2018-10-16T02:41:41.420Z,8.40
2018-10-16T02:44:09.841Z,8.50
2018-10-16T02:46:37.966Z,8.50
2018-10-16T02:49:06.302Z,8.50
2018-10-16T02:51:34.470Z,8.50
2018-10-16T02:54:02.681Z,8.50
2018-10-16T02:56:30.828Z,8.40
2018-10-16T02:58:58.970Z,8.50
2018-10-16T03:01:27.143Z,8.50
2018-10-16T03:03:55.295Z,8.50
2018-10-16T03:06:23.453Z,8.50
2018-10-16T03:08:51.602Z,8.50
2018-10-16T03:11:19.766Z,8.40
2018-10-16T03:13:47.980Z,8.40
2018-10-16T03:16:16.147Z,8.40
2018-10-16T03:18:44.276Z,8.30
2018-10-16T03:21:12.434Z,8.30
2018-10-16T03:23:40.589Z,8.20
2018-10-16T03:26:08.818Z,8.20
2018-10-16T03:28:36.933Z,8.20
2018-10-16T03:31:05.096Z,8.20
2018-10-16T03:33:33.258Z,8.20
2018-10-16T03:36:01.513Z,8.10
2018-10-16T03:38:29.637Z,8.10
2018-10-16T03:40:57.766Z,8.10
2018-10-16T03:43:25.943Z,8.00
2018-10-16T03:45:54.073Z,8.10
2018-10-16T03:48:22.215Z,8.20
2018-10-16T03:50:50.410Z,8.10
2018-10-16T03:53:18.535Z,8.00
2018-10-16T03:55:46.654Z,8.00
2018-10-16T03:58:14.814Z,8.00
2018-10-16T04:00:42.975Z,8.10
2018-10-16T04:03:11.147Z,8.10
2018-10-16T04:05:39.278Z,8.10
2018-10-16T04:08:07.430Z,8.20
2018-10-16T04:10:35.580Z,8.20
2018-10-16T04:13:03.786Z,8.10
2018-10-16T04:15:31.927Z,8.10
2018-10-16T04:18:00.088Z,8.10
2018-10-16T04:20:28.221Z,8.00
2018-10-16T04:22:56.422Z,8.00
2018-10-16T04:25:24.515Z,8.00
2018-10-16T04:27:52.649Z,8.00
2018-10-16T04:30:20.773Z,8.00
2018-10-16T04:32:48.930Z,8.00
2018-10-16T04:35:17.671Z,8.00
2018-10-16T04:37:46.694Z,7.80
2018-10-16T04:40:15.038Z,7.90
2018-10-16T04:42:43.516Z,7.80
2018-10-16T04:45:12.435Z,7.80
2018-10-16T04:47:41.390Z,7.80
2018-10-16T04:50:10.544Z,7.80
2018-10-16T04:52:45.413Z,7.90
2018-10-16T04:55:20.088Z,7.90
2018-10-16T04:57:48.126Z,7.90
2018-10-16T05:00:16.331Z,7.80
2018-10-16T05:02:44.546Z,7.70
2018-10-16T05:05:22.295Z,7.60
2018-10-16T05:07:51.076Z,7.50
2018-10-16T05:10:19.848Z,7.40
2018-10-16T05:12:48.122Z,7.30
2018-10-16T05:15:24.797Z,7.30
2018-10-16T05:17:52.979Z,7.30
2018-10-16T05:20:21.117Z,7.20
2018-10-16T05:22:54.939Z,7.20
2018-10-16T05:25:23.435Z,7.10
2018-10-16T05:27:51.681Z,7.10
2018-10-16T05:30:19.890Z,7.20
2018-10-16T05:32:48.068Z,7.10
2018-10-16T05:35:16.227Z,7.10
2018-10-16T05:37:44.363Z,7.10
2018-10-16T05:40:12.499Z,7.00
2018-10-16T05:42:40.957Z,6.90
2018-10-16T05:45:10.761Z,7.00
2018-10-16T05:47:39.888Z,7.00
2018-10-16T05:50:08.556Z,7.00
2018-10-16T05:52:36.746Z,6.90
2018-10-16T05:55:05.197Z,6.90
2018-10-16T05:57:33.424Z,6.90
2018-10-16T06:00:14.183Z,6.90
2018-10-16T06:02:42.389Z,6.90
2018-10-16T06:05:11.333Z,6.90
2018-10-16T06:07:39.469Z,6.90
2018-10-16T06:10:07.629Z,6.90
2018-10-16T06:12:35.814Z,6.90
2018-10-16T06:15:04.417Z,6.90
2018-10-16T06:17:32.574Z,7.00
2018-10-16T06:20:00.815Z,7.00
2018-10-16T06:22:28.946Z,7.10
2018-10-16T06:24:57.074Z,7.10
2018-10-16T06:27:25.590Z,7.00
2018-10-16T06:29:53.697Z,7.10
2018-10-16T06:32:22.043Z,7.30
2018-10-16T06:34:50.178Z,7.50
2018-10-16T06:37:18.313Z,7.70
2018-10-16T06:39:46.451Z,8.00
2018-10-16T06:42:14.591Z,8.30
2018-10-16T06:44:42.834Z,8.60
2018-10-16T06:47:10.988Z,8.70
2018-10-16T06:49:39.133Z,9.10
2018-10-16T06:52:07.270Z,9.40
2018-10-16T06:54:35.491Z,9.70
2018-10-16T06:57:03.641Z,9.80
2018-10-16T06:59:31.819Z,9.90
2018-10-16T07:02:00.001Z,9.90
2018-10-16T07:04:28.154Z,10.20
2018-10-16T07:06:56.356Z,10.40
2018-10-16T07:09:24.426Z,10.50
2018-10-16T07:11:52.581Z,10.90
2018-10-16T07:14:20.734Z,11.10
2018-10-16T07:16:48.892Z,11.00
2018-10-16T07:19:17.056Z,11.10
2018-10-16T07:21:45.236Z,11.50
2018-10-16T07:24:13.368Z,11.90
2018-10-16T07:26:41.507Z,12.50
2018-10-16T07:29:09.710Z,12.50
2018-10-16T07:31:37.860Z,12.90
2018-10-16T07:34:06.070Z,13.30
2018-10-16T07:36:34.237Z,13.40
2018-10-16T07:39:02.396Z,13.70
2018-10-16T07:41:30.504Z,14.00
2018-10-16T07:43:58.665Z,14.20
2018-10-16T07:46:26.820Z,14.10
2018-10-16T07:48:54.993Z,14.10
2018-10-16T07:51:23.138Z,14.10
2018-10-16T07:53:51.365Z,14.10
2018-10-16T07:56:19.468Z,14.10
2018-10-16T07:58:47.630Z,14.00
2018-10-16T08:01:15.801Z,14.50
2018-10-16T08:03:43.960Z,14.90
2018-10-16T08:06:12.103Z,14.90
2018-10-16T08:08:40.255Z,15.20
2018-10-16T08:11:08.446Z,15.00
2018-10-16T08:13:36.591Z,15.20
2018-10-16T08:16:05.116Z,15.10
2018-10-16T08:18:33.287Z,14.80
2018-10-16T08:21:01.459Z,14.90
2018-10-16T08:23:29.644Z,15.10
2018-10-16T08:25:57.783Z,15.40
2018-10-16T08:28:25.934Z,16.00
2018-10-16T08:30:54.099Z,16.30
2018-10-16T08:33:22.269Z,16.60
2018-10-16T08:35:50.421Z,16.60
2018-10-16T08:38:24.841Z,16.20
2018-10-16T08:40:53.016Z,16.40
2018-10-16T08:44:30.515Z,16.70
2018-10-16T08:47:10.087Z,16.90
2018-10-16T08:49:49.590Z,17.50
2018-10-16T08:52:17.731Z,18.00
2018-10-16T08:54:45.887Z,18.50
2018-10-16T08:57:14.045Z,18.60
2018-10-16T08:59:42.254Z,18.80
2018-10-16T09:02:10.375Z,18.80
2018-10-16T09:04:38.546Z,18.80
2018-10-16T09:07:06.696Z,18.70
2018-10-16T09:09:34.884Z,18.70
2018-10-16T09:12:03.013Z,19.00
2018-10-16T09:14:31.224Z,19.30
2018-10-16T09:16:59.310Z,19.50
2018-10-16T09:19:27.477Z,19.60
2018-10-16T09:21:55.607Z,19.50
2018-10-16T09:24:23.767Z,19.80
2018-10-16T09:26:51.894Z,20.20
2018-10-16T09:29:20.046Z,20.70
2018-10-16T09:31:48.183Z,21.00
2018-10-16T09:34:16.370Z,21.20
2018-10-16T09:36:44.515Z,21.30
2018-10-16T09:39:12.652Z,21.30
2018-10-16T09:41:40.830Z,21.30
2018-10-16T09:44:08.993Z,21.10
2018-10-16T09:46:37.638Z,21.20
2018-10-16T09:49:05.891Z,21.20
2018-10-16T09:51:34.066Z,21.10
2018-10-16T09:54:02.248Z,21.10
2018-10-16T09:56:30.398Z,21.40
2018-10-16T09:58:58.575Z,21.60
2018-10-16T10:01:32.202Z,22.20
2018-10-16T10:04:00.399Z,22.80
2018-10-16T10:06:28.551Z,23.40
2018-10-16T10:08:56.682Z,23.70
2018-10-16T10:11:24.855Z,23.80
2018-10-16T10:13:52.997Z,23.70
2018-10-16T10:16:21.157Z,23.70
2018-10-16T10:18:49.328Z,23.90
2018-10-16T10:21:17.501Z,23.90
2018-10-16T10:23:45.706Z,23.90
2018-10-16T10:26:13.890Z,24.10
2018-10-16T10:28:42.094Z,24.20
2018-10-16T10:31:10.276Z,24.30
2018-10-16T10:33:38.442Z,24.50
2018-10-16T10:36:06.691Z,24.80
2018-10-16T10:38:34.820Z,25.20
2018-10-16T10:41:03.019Z,25.70
2018-10-16T10:43:31.179Z,25.90
2018-10-16T10:45:59.378Z,26.10
2018-10-16T10:48:27.645Z,26.30
2018-10-16T10:50:55.849Z,26.50
2018-10-16T10:53:23.962Z,26.70
2018-10-16T10:55:52.115Z,26.70
2018-10-16T10:58:20.289Z,26.90
2018-10-16T11:00:48.478Z,27.10
2018-10-16T11:03:16.684Z,27.20
2018-10-16T11:05:44.872Z,27.30
2018-10-16T11:08:13.091Z,27.50
2018-10-16T11:10:41.222Z,27.60
2018-10-16T11:13:09.395Z,27.80
2018-10-16T11:15:37.629Z,27.90
2018-10-16T11:18:05.802Z,28.00
2018-10-16T11:20:34.047Z,28.20
2018-10-16T11:23:02.207Z,28.30
2018-10-16T11:25:36.930Z,28.40
2018-10-16T11:28:05.654Z,28.50
2018-10-16T11:30:33.805Z,28.70
2018-10-16T11:33:02.036Z,28.90
2018-10-16T11:35:30.092Z,29.10
2018-10-16T11:37:58.266Z,29.20
2018-10-16T11:40:26.452Z,29.20
2018-10-16T11:42:54.634Z,29.00
2018-10-16T11:45:22.836Z,28.70
2018-10-16T11:47:51.067Z,28.90
2018-10-16T11:50:19.230Z,29.00
2018-10-16T11:52:47.438Z,29.10
2018-10-16T11:55:15.590Z,29.20
2018-10-16T11:57:43.759Z,29.40
2018-10-16T12:00:14.232Z,29.50
2018-10-16T12:02:42.475Z,29.50
2018-10-16T12:05:10.712Z,29.60
2018-10-16T12:07:38.883Z,29.70
2018-10-16T12:10:07.107Z,29.90
2018-10-16T12:12:35.308Z,29.80
2018-10-16T12:15:03.642Z,29.70
2018-10-16T12:17:37.257Z,29.70
2018-10-16T12:20:17.691Z,29.70
2018-10-16T12:22:45.867Z,29.70
2018-10-16T12:25:14.119Z,30.00
2018-10-16T12:27:42.215Z,30.20
2018-10-16T12:30:10.653Z,30.10
2018-10-16T12:32:38.859Z,30.10
2018-10-16T12:35:07.389Z,30.00
2018-10-16T12:37:35.583Z,29.90
2018-10-16T12:40:04.090Z,30.00
2018-10-16T12:42:32.219Z,30.00
2018-10-16T12:45:00.509Z,29.90
2018-10-16T12:47:28.571Z,29.80
2018-10-16T12:49:56.756Z,29.70
2018-10-16T12:52:24.920Z,29.80
2018-10-16T12:54:53.074Z,30.00
2018-10-16T12:57:21.267Z,30.30
2018-10-16T12:59:49.391Z,30.40
2018-10-16T13:02:17.551Z,30.10
2018-10-16T13:04:45.701Z,30.00
2018-10-16T13:07:23.157Z,29.80
2018-10-16T13:09:51.399Z,29.70
2018-10-16T13:12:19.592Z,29.60
2018-10-16T13:14:47.751Z,29.50
2018-10-16T13:17:15.945Z,29.40
2018-10-16T13:19:44.708Z,29.40
2018-10-16T13:22:12.899Z,29.40
2018-10-16T13:24:41.091Z,29.30
2018-10-16T13:27:09.259Z,29.40
2018-10-16T13:29:37.556Z,29.40
2018-10-16T13:32:05.697Z,29.30
2018-10-16T13:34:33.802Z,29.10
2018-10-16T13:37:01.957Z,29.20
2018-10-16T13:39:30.117Z,29.20
2018-10-16T13:41:58.286Z,29.30
2018-10-16T13:44:26.479Z,29.30
2018-10-16T13:46:54.668Z,29.00
2018-10-16T13:49:22.827Z,28.90
2018-10-16T13:51:51.042Z,28.80
2018-10-16T13:54:19.154Z,28.80
2018-10-16T13:56:47.637Z,28.90
2018-10-16T13:59:15.821Z,28.70
2018-10-16T14:01:44.001Z,28.60
2018-10-16T14:04:12.521Z,28.60
2018-10-16T14:06:40.581Z,28.60
2018-10-16T14:09:08.813Z,28.60
2018-10-16T14:11:37.153Z,28.50
2018-10-16T14:14:05.774Z,28.30
2018-10-16T14:16:33.811Z,28.30
2018-10-16T14:19:02.010Z,28.30
2018-10-16T14:21:30.163Z,28.40
2018-10-16T14:23:58.358Z,28.40
2018-10-16T14:26:26.564Z,28.20
2018-10-16T14:28:54.689Z,28.20
2018-10-16T14:31:22.871Z,28.10
2018-10-16T14:33:51.047Z,27.90
2018-10-16T14:36:19.213Z,27.80
2018-10-16T14:38:47.390Z,27.50
2018-10-16T14:41:15.554Z,27.50
2018-10-16T14:43:43.747Z,27.40
2018-10-16T14:46:11.959Z,27.30
2018-10-16T14:48:40.086Z,27.10
2018-10-16T14:51:08.305Z,26.80
2018-10-16T14:53:36.459Z,26.60
2018-10-16T14:56:05.463Z,26.40
2018-10-16T14:58:33.557Z,26.40
2018-10-16T15:01:01.780Z,26.30
2018-10-16T15:03:29.973Z,26.10
2018-10-16T15:05:58.135Z,26.00
2018-10-16T15:08:26.286Z,25.90
2018-10-16T15:10:54.466Z,25.80
2018-10-16T15:13:22.655Z,25.80
2018-10-16T15:15:50.811Z,25.70
2018-10-16T15:18:19.119Z,25.70
2018-10-16T15:20:47.302Z,25.60
2018-10-16T15:23:15.513Z,25.40
2018-10-16T15:25:43.719Z,25.40
2018-10-16T15:28:11.989Z,25.30
2018-10-16T15:30:40.079Z,25.10
2018-10-16T15:33:08.258Z,25.10
2018-10-16T15:35:36.609Z,25.00
2018-10-16T15:38:05.439Z,24.90
2018-10-16T15:40:33.719Z,24.70
2018-10-16T15:43:01.979Z,24.60
2018-10-16T15:45:30.130Z,24.40
2018-10-16T15:47:58.429Z,24.20
2018-10-16T15:50:26.554Z,24.00
2018-10-16T15:52:54.803Z,23.80
2018-10-16T15:55:22.946Z,23.60
2018-10-16T15:57:51.210Z,23.50
2018-10-16T16:00:19.642Z,23.40
2018-10-16T16:02:47.935Z,23.20
2018-10-16T16:05:16.144Z,23.10
2018-10-16T16:07:44.336Z,22.90
2018-10-16T16:10:14.726Z,22.70
2018-10-16T16:12:42.912Z,22.50
2018-10-16T16:15:12.094Z,22.40
2018-10-16T16:17:40.487Z,22.30
2018-10-16T16:20:10.757Z,22.10
2018-10-16T16:22:39.054Z,22.00
2018-10-16T16:25:08.983Z,21.90
2018-10-16T16:27:37.458Z,21.60
2018-10-16T16:30:07.482Z,21.50
2018-10-16T16:32:35.603Z,21.50
2018-10-16T16:35:03.968Z,21.30
2018-10-16T16:37:32.118Z,21.10
2018-10-16T16:40:00.285Z,21.00
2018-10-16T16:42:28.451Z,20.90
2018-10-16T16:44:56.605Z,20.80
2018-10-16T16:47:24.740Z,20.60
2018-10-16T16:49:52.924Z,20.50
2018-10-16T16:52:21.070Z,20.30
2018-10-16T16:54:49.280Z,20.00
2018-10-16T16:57:17.419Z,19.80
2018-10-16T16:59:45.566Z,19.70
2018-10-16T17:02:13.829Z,19.60
2018-10-16T17:04:41.967Z,19.40
2018-10-16T17:07:10.051Z,19.30
2018-10-16T17:09:38.203Z,19.20
2018-10-16T17:12:06.643Z,19.10
2018-10-16T17:14:34.789Z,18.90
2018-10-16T17:17:02.940Z,18.80
2018-10-16T17:19:31.115Z,18.80
2018-10-16T17:21:59.288Z,18.60
2018-10-16T17:24:27.434Z,18.50
2018-10-16T17:26:55.574Z,18.40
2018-10-16T17:29:23.748Z,18.30
2018-10-16T17:31:51.908Z,18.20
2018-10-16T17:34:20.069Z,18.10
2018-10-16T17:36:48.205Z,18.10
2018-10-16T17:39:16.407Z,18.00
2018-10-16T17:41:44.568Z,17.90
2018-10-16T17:44:12.727Z,17.80
2018-10-16T17:46:40.903Z,17.70
2018-10-16T17:49:09.114Z,17.60
2018-10-16T17:51:37.253Z,17.50
2018-10-16T17:54:05.446Z,17.40
2018-10-16T17:56:33.616Z,17.20
2018-10-16T17:59:01.790Z,17.10
2018-10-16T18:01:29.947Z,17.00
2018-10-16T18:03:58.110Z,16.90
2018-10-16T18:06:26.274Z,16.90
2018-10-16T18:08:54.458Z,16.80
2018-10-16T18:11:22.663Z,16.70
2018-10-16T18:13:50.826Z,16.70
2018-10-16T18:16:19.017Z,16.60
2018-10-16T18:18:47.150Z,16.50
2018-10-16T18:21:15.329Z,16.40
2018-10-16T18:23:43.483Z,16.30
2018-10-16T18:26:11.635Z,16.10
2018-10-16T18:28:39.851Z,16.00
2018-10-16T18:31:08.070Z,15.90
2018-10-16T18:33:36.761Z,15.90
2018-10-16T18:36:05.068Z,15.90
2018-10-16T18:38:33.216Z,15.80
2018-10-16T18:41:01.387Z,15.70
2018-10-16T18:43:29.544Z,15.70
2018-10-16T18:45:57.708Z,15.60
2018-10-16T18:48:25.879Z,15.70
2018-10-16T18:50:54.102Z,15.60
2018-10-16T18:53:22.220Z,15.50
2018-10-16T18:55:50.382Z,15.40
2018-10-16T18:58:18.547Z,15.40
2018-10-16T19:00:46.696Z,15.30
2018-10-16T19:03:14.926Z,15.20
2018-10-16T19:05:43.002Z,15.10
2018-10-16T19:08:11.160Z,15.00
2018-10-16T19:10:39.378Z,14.90
2018-10-16T19:13:07.556Z,14.80
2018-10-16T19:15:35.748Z,14.70
2018-10-16T19:18:03.889Z,14.50
2018-10-16T19:20:32.043Z,14.40
2018-10-16T19:23:00.190Z,14.40
2018-10-16T19:25:28.340Z,14.20
2018-10-16T19:27:56.487Z,14.10
2018-10-16T19:30:24.636Z,14.10
2018-10-16T19:32:52.834Z,14.00
2018-10-16T19:35:21.027Z,13.90
2018-10-16T19:37:49.240Z,13.80
2018-10-16T19:40:17.340Z,13.80
2018-10-16T19:42:45.523Z,13.80
2018-10-16T19:45:13.706Z,13.80
2018-10-16T19:47:41.856Z,13.70
2018-10-16T19:50:10.671Z,13.60
2018-10-16T19:52:38.834Z,13.50
2018-10-16T19:55:07.014Z,13.40
2018-10-16T19:57:35.195Z,13.30
2018-10-16T20:00:03.384Z,13.40
2018-10-16T20:02:31.541Z,13.30
2018-10-16T20:04:59.697Z,13.30
2018-10-16T20:07:27.859Z,13.20
2018-10-16T20:09:56.055Z,13.20
2018-10-16T20:12:24.195Z,13.10
2018-10-16T20:14:52.387Z,13.10
2018-10-16T20:17:20.534Z,13.10
2018-10-16T20:19:48.759Z,13.10
2018-10-16T20:22:16.853Z,13.10
2018-10-16T20:24:45.197Z,13.10
2018-10-16T20:27:13.191Z,13.00
2018-10-16T20:29:41.372Z,12.90
2018-10-16T20:32:09.560Z,12.80
2018-10-16T20:34:37.711Z,12.70
2018-10-16T20:37:05.937Z,12.70
2018-10-16T20:39:34.067Z,12.70
2018-10-16T20:42:02.296Z,12.70
2018-10-16T20:44:30.399Z,12.50
2018-10-16T20:47:05.205Z,12.40
2018-10-16T20:49:33.350Z,12.30
2018-10-16T20:52:01.491Z,12.20
2018-10-16T20:54:29.625Z,12.10
2018-10-16T20:56:57.830Z,12.10
2018-10-16T20:59:25.975Z,11.90
2018-10-16T21:01:54.134Z,11.90
2018-10-16T21:04:22.270Z,11.90
2018-10-16T21:06:50.566Z,11.80
2018-10-16T21:09:18.632Z,11.80
2018-10-16T21:11:46.741Z,11.80
2018-10-16T21:14:15.001Z,11.80
2018-10-16T21:16:43.167Z,11.80
2018-10-16T21:19:11.413Z,11.80
2018-10-16T21:21:39.459Z,11.70
2018-10-16T21:24:07.598Z,11.70
2018-10-16T21:26:35.780Z,11.70
2018-10-16T21:29:03.997Z,11.70
2018-10-16T21:31:32.111Z,11.70
2018-10-16T21:34:00.270Z,11.80
2018-10-16T21:36:29.265Z,11.80
2018-10-16T21:38:57.432Z,11.70
2018-10-16T21:41:25.558Z,11.70
2018-10-16T21:43:53.685Z,11.60
2018-10-16T21:46:21.793Z,11.50
2018-10-16T21:48:49.925Z,11.50
2018-10-16T21:51:18.061Z,11.50
2018-10-16T21:53:46.189Z,11.40
2018-10-16T21:56:14.332Z,11.40
2018-10-16T21:58:42.462Z,11.30
2018-10-16T22:01:11.923Z,11.10
2018-10-16T22:03:40.462Z,11.00
2018-10-16T22:06:08.718Z,10.90
2018-10-16T22:08:43.309Z,10.90
2018-10-16T22:11:11.541Z,10.90
2018-10-16T22:13:39.725Z,10.90
2018-10-16T22:16:11.226Z,10.90
2018-10-16T22:18:39.379Z,10.80
2018-10-16T22:21:07.513Z,10.70
2018-10-16T22:23:35.658Z,10.60
2018-10-16T22:26:03.833Z,10.60
2018-10-16T22:28:31.969Z,10.60
2018-10-16T22:31:00.105Z,10.70
2018-10-16T22:33:28.229Z,10.70
2018-10-16T22:35:56.374Z,10.70
2018-10-16T22:38:24.493Z,10.60
2018-10-16T22:40:52.677Z,10.60
2018-10-16T22:43:20.750Z,10.50
2018-10-16T22:45:49.037Z,10.40
2018-10-16T22:48:17.171Z,10.30
2018-10-16T22:50:45.315Z,10.40
2018-10-16T22:53:13.514Z,10.50
2018-10-16T22:55:41.576Z,10.40
2018-10-16T22:58:09.726Z,10.30
2018-10-16T23:00:37.833Z,10.20
2018-10-16T23:03:05.966Z,10.20
2018-10-16T23:05:34.107Z,10.10
2018-10-16T23:08:02.238Z,10.10
2018-10-16T23:10:30.367Z,10.10
2018-10-16T23:13:04.712Z,10.10
2018-10-16T23:15:32.803Z,10.00
2018-10-16T23:18:01.083Z,10.00
2018-10-16T23:20:29.239Z,10.00
2018-10-16T23:22:57.619Z,10.00
2018-10-16T23:25:25.725Z,10.00
2018-10-16T23:27:53.850Z,10.00
2018-10-16T23:30:22.018Z,10.00
2018-10-16T23:32:50.145Z,10.00
2018-10-16T23:35:18.366Z,10.00
2018-10-16T23:37:46.537Z,10.00
2018-10-16T23:40:14.665Z,9.80
2018-10-16T23:42:42.785Z,9.80
2018-10-16T23:45:10.949Z,9.80
2018-10-16T23:47:39.087Z,9.90
2018-10-16T23:50:07.225Z,9.90
2018-10-16T23:52:35.341Z,9.80
2018-10-16T23:55:10.701Z,9.80
2018-10-16T23:57:38.894Z,9.90
